Time;durP1;ratioP1;P1;durP2;ratioP2;P2;SDS_P1;SDS_P2;PMS_P1;PMS_P2;Temp;Humidity;BMP_temperature;BMP_pressure;BME280_temperature;BME280_humidity;BME280_pressure;Samples;Min_cycle;Max_cycle;Signal;HPM_P1;HPM_P2
2022/02/18 00:01:04;;;;;;;17.35;6.80;;;6.10;99.90;;;;;;5089615;28;20067;-58
2022/02/18 00:03:31;;;;;;;17.10;6.30;;;6.10;99.90;;;;;;5089991;28;20028;-54
2022/02/18 00:05:57;;;;;;;18.85;7.03;;;6.10;99.90;;;;;;5071323;28;20492;-56
2022/02/18 00:08:24;;;;;;;20.33;6.28;;;6.10;99.90;;;;;;5089883;28;20111;-54
2022/02/18 00:10:49;;;;;;;21.65;7.50;;;6.20;99.90;;;;;;5090189;28;20028;-58
2022/02/18 00:13:16;;;;;;;18.58;6.18;;;6.20;99.90;;;;;;5089416;28;20085;-58
2022/02/18 00:15:42;;;;;;;18.02;6.57;;;6.20;99.90;;;;;;5071359;28;20024;-57
2022/02/18 00:18:07;;;;;;;19.40;7.85;;;6.20;99.90;;;;;;5062792;28;20127;-53
2022/02/18 00:20:34;;;;;;;25.90;7.30;;;6.20;99.90;;;;;;5069611;28;20020;-57
2022/02/18 00:23:02;;;;;;;17.90;6.82;;;6.20;99.90;;;;;;5069593;28;20072;-52
2022/02/18 00:25:27;;;;;;;22.92;8.13;;;6.10;99.90;;;;;;5068781;28;20028;-57
2022/02/18 00:27:53;;;;;;;19.08;7.28;;;6.20;99.90;;;;;;5051712;28;20583;-58
2022/02/18 00:30:19;;;;;;;21.52;6.90;;;6.20;99.90;;;;;;5053640;28;20503;-52
2022/02/18 00:32:45;;;;;;;19.83;7.18;;;6.20;99.90;;;;;;5053686;28;20530;-55
2022/02/18 00:35:11;;;;;;;29.00;8.52;;;6.20;99.90;;;;;;5055453;28;20035;-57
2022/02/18 00:37:37;;;;;;;20.35;6.95;;;6.20;99.90;;;;;;5054764;28;20016;-56
2022/02/18 00:40:03;;;;;;;18.98;7.90;;;6.20;99.90;;;;;;5073149;28;20095;-53
2022/02/18 00:42:29;;;;;;;18.38;7.40;;;6.20;99.90;;;;;;5073020;28;20082;-55
2022/02/18 00:44:55;;;;;;;19.42;7.38;;;6.20;99.90;;;;;;5072828;28;20477;-55
2022/02/18 00:47:21;;;;;;;15.95;6.40;;;6.30;99.90;;;;;;5073531;28;20373;-53
2022/02/18 00:49:46;;;;;;;17.55;7.10;;;6.30;99.90;;;;;;5055321;28;20033;-57
2022/02/18 00:52:12;;;;;;;32.15;9.48;;;6.30;99.90;;;;;;5055315;28;20031;-57
2022/02/18 00:54:38;;;;;;;27.05;8.27;;;6.30;99.90;;;;;;5071536;28;20392;-53
2022/02/18 00:57:04;;;;;;;20.40;6.68;;;6.30;99.90;;;;;;5072415;28;20028;-57
2022/02/18 00:59:29;;;;;;;20.52;6.82;;;6.40;99.90;;;;;;5072889;28;20028;-58
2022/02/18 01:01:55;;;;;;;18.08;6.30;;;6.40;99.90;;;;;;5072584;28;20500;-54
2022/02/18 01:04:21;;;;;;;22.25;7.72;;;6.40;99.90;;;;;;5071876;28;20071;-53
2022/02/18 01:06:47;;;;;;;18.23;6.90;;;6.40;99.90;;;;;;5072875;28;20403;-58
2022/02/18 01:09:12;;;;;;;21.63;6.63;;;6.30;99.90;;;;;;5072699;28;20107;-55
2022/02/18 01:11:38;;;;;;;18.25;7.55;;;6.30;99.90;;;;;;5072572;28;20068;-55
2022/02/18 01:14:05;;;;;;;21.52;7.57;;;6.30;99.90;;;;;;5071663;28;20071;-56
2022/02/18 01:16:31;;;;;;;22.00;7.18;;;6.30;99.90;;;;;;5072499;28;20031;-59
2022/02/18 01:18:57;;;;;;;19.17;7.25;;;6.20;99.90;;;;;;5072528;28;20028;-57
2022/02/18 01:21:23;;;;;;;18.83;6.97;;;6.20;99.90;;;;;;5072593;28;20029;-54
2022/02/18 01:23:49;;;;;;;23.80;7.40;;;6.20;99.90;;;;;;5071792;28;20024;-55
2022/02/18 01:26:15;;;;;;;22.40;6.70;;;6.20;99.90;;;;;;5054191;28;20016;-56
2022/02/18 01:28:41;;;;;;;18.42;7.65;;;6.20;99.90;;;;;;5072609;28;20392;-55
2022/02/18 01:31:07;;;;;;;22.15;8.48;;;6.20;99.90;;;;;;5054398;28;20500;-54
2022/02/18 01:33:32;;;;;;;21.25;7.18;;;6.30;99.90;;;;;;5072178;28;20130;-51
2022/02/18 01:35:58;;;;;;;24.25;8.57;;;6.30;99.90;;;;;;5071241;28;20499;-54
2022/02/18 01:38:24;;;;;;;17.63;6.47;;;6.30;99.90;;;;;;5054403;28;20025;-55
2022/02/18 01:40:49;;;;;;;20.30;6.90;;;6.30;99.90;;;;;;5054376;28;20052;-56
2022/02/18 01:43:15;;;;;;;27.27;8.70;;;6.40;99.90;;;;;;5072187;28;20025;-55
2022/02/18 01:45:41;;;;;;;20.02;8.70;;;6.40;99.90;;;;;;5071106;28;20056;-54
2022/02/18 01:48:07;;;;;;;20.85;6.60;;;6.30;99.90;;;;;;5054327;28;20067;-53
2022/02/18 01:50:32;;;;;;;20.30;7.45;;;6.40;99.90;;;;;;5072007;28;20052;-55
2022/02/18 01:53:00;;;;;;;22.58;8.38;;;6.40;99.90;;;;;;5054070;28;20083;-56
2022/02/18 01:55:27;;;;;;;28.10;7.60;;;6.40;99.90;;;;;;5071275;28;20556;-54
2022/02/18 01:57:58;;;;;;;20.77;6.93;;;6.40;99.90;;;;;;5072226;28;20025;-56
2022/02/18 02:00:29;;;;;;;22.80;7.95;;;6.40;99.90;;;;;;5072474;28;20025;-53
2022/02/18 02:02:55;;;;;;;19.58;7.38;;;6.40;99.90;;;;;;5059957;28;20040;-55
2022/02/18 02:05:22;;;;;;;30.63;8.18;;;6.30;99.90;;;;;;5053123;28;20029;-55
2022/02/18 02:07:49;;;;;;;24.00;7.95;;;6.30;99.90;;;;;;5075492;28;20025;-54
2022/02/18 02:10:16;;;;;;;19.92;7.22;;;6.30;99.90;;;;;;5058071;28;20047;-58
2022/02/18 02:12:51;;;;;;;22.40;7.55;;;6.30;99.90;;;;;;5075890;28;20050;-54
2022/02/18 02:15:18;;;;;;;19.92;7.85;;;6.30;99.90;;;;;;5075191;28;20031;-54
2022/02/18 02:17:45;;;;;;;26.05;7.97;;;6.30;99.90;;;;;;5076052;28;20096;-56
2022/02/18 02:20:12;;;;;;;23.13;7.75;;;6.20;99.90;;;;;;5075770;28;20051;-55
2022/02/18 02:22:39;;;;;;;23.38;8.63;;;6.20;99.90;;;;;;5075619;28;20032;-56
2022/02/18 02:25:06;;;;;;;20.58;7.40;;;6.20;99.90;;;;;;5057111;28;20099;-54
2022/02/18 02:27:32;;;;;;;31.25;8.90;;;6.20;99.90;;;;;;5057747;28;20029;-59
2022/02/18 02:29:58;;;;;;;16.45;7.57;;;6.20;99.90;;;;;;5075485;28;20029;-58
2022/02/18 02:32:23;;;;;;;25.58;8.38;;;6.30;99.90;;;;;;5075479;28;20025;-55
2022/02/18 02:34:49;;;;;;;24.83;8.82;;;6.30;99.90;;;;;;5056476;28;20032;-55
2022/02/18 02:37:15;;;;;;;26.23;8.90;;;6.30;99.90;;;;;;5075732;28;20047;-53
2022/02/18 02:39:41;;;;;;;24.92;8.70;;;6.30;99.90;;;;;;5075598;28;20066;-55
2022/02/18 02:42:08;;;;;;;25.05;8.00;;;6.30;99.90;;;;;;5075283;28;20075;-57
2022/02/18 02:44:34;;;;;;;27.15;8.57;;;6.30;99.90;;;;;;5074555;28;20078;-55
2022/02/18 02:47:01;;;;;;;23.83;8.02;;;6.30;99.90;;;;;;5057618;28;20088;-56
2022/02/18 02:49:27;;;;;;;21.63;7.80;;;6.30;99.90;;;;;;5074469;28;20037;-58
2022/02/18 02:51:53;;;;;;;21.77;8.75;;;6.30;99.90;;;;;;5075452;28;20031;-55
2022/02/18 02:54:19;;;;;;;25.95;8.07;;;6.30;99.90;;;;;;5074175;28;20040;-57
2022/02/18 02:56:45;;;;;;;29.23;9.15;;;6.30;99.90;;;;;;5074940;28;20534;-57
2022/02/18 02:59:11;;;;;;;21.08;7.78;;;6.30;99.90;;;;;;5074819;28;20025;-54
2022/02/18 03:01:36;;;;;;;21.83;8.40;;;6.40;99.90;;;;;;5074896;28;20025;-56
2022/02/18 03:04:03;;;;;;;23.65;8.15;;;6.40;99.90;;;;;;5074046;28;20396;-53
2022/02/18 03:06:28;;;;;;;26.33;9.48;;;6.30;99.90;;;;;;5074609;28;20503;-55
2022/02/18 03:08:54;;;;;;;27.08;9.35;;;6.40;99.90;;;;;;5074890;28;20024;-55
2022/02/18 03:11:21;;;;;;;23.75;8.25;;;6.40;99.90;;;;;;5056789;28;20028;-54
2022/02/18 03:13:50;;;;;;;24.88;9.65;;;6.50;99.90;;;;;;5074296;28;20032;-54
2022/02/18 03:16:17;;;;;;;28.30;8.18;;;6.40;99.90;;;;;;5056625;28;20473;-55
2022/02/18 03:18:43;;;;;;;26.40;8.40;;;6.50;99.90;;;;;;5074040;28;20031;-56
2022/02/18 03:21:09;;;;;;;24.35;7.82;;;6.50;99.90;;;;;;5074500;28;20471;-54
2022/02/18 03:23:35;;;;;;;21.40;8.15;;;6.50;99.90;;;;;;5074481;28;20039;-57
2022/02/18 03:26:01;;;;;;;25.75;8.50;;;6.60;99.90;;;;;;5073457;28;20498;-52
2022/02/18 03:28:27;;;;;;;25.50;8.70;;;6.60;99.90;;;;;;5074130;28;20024;-51
2022/02/18 03:30:53;;;;;;;24.73;7.78;;;6.60;99.90;;;;;;5074134;28;20025;-56
2022/02/18 03:33:18;;;;;;;24.90;7.40;;;6.60;99.90;;;;;;5074220;28;20029;-56
2022/02/18 03:35:44;;;;;;;31.98;9.43;;;6.60;99.90;;;;;;5073210;28;20546;-56
2022/02/18 03:38:10;;;;;;;35.10;8.32;;;6.60;99.90;;;;;;5074100;28;20024;-52
2022/02/18 03:40:36;;;;;;;32.70;9.88;;;6.60;99.90;;;;;;5056086;28;20029;-53
2022/02/18 03:43:02;;;;;;;22.50;7.85;;;6.60;99.90;;;;;;5073883;28;20082;-57
2022/02/18 03:45:28;;;;;;;26.50;8.88;;;6.60;99.90;;;;;;5073250;28;20037;-54
2022/02/18 03:47:53;;;;;;;24.95;8.35;;;6.60;99.90;;;;;;5073732;28;20035;-56
2022/02/18 03:50:20;;;;;;;23.92;7.13;;;6.60;99.90;;;;;;5074047;28;20059;-57
2022/02/18 03:52:45;;;;;;;23.10;8.13;;;6.60;99.90;;;;;;5055870;28;20025;-52
2022/02/18 03:55:12;;;;;;;27.30;9.30;;;6.60;99.90;;;;;;5072994;28;20047;-57
2022/02/18 03:57:37;;;;;;;19.73;7.22;;;6.60;99.90;;;;;;5073641;28;20027;-55
2022/02/18 04:00:05;;;;;;;26.45;7.45;;;6.60;99.90;;;;;;5055817;28;20107;-52
2022/02/18 04:02:31;;;;;;;26.95;8.02;;;6.60;99.90;;;;;;5073696;28;20029;-59
2022/02/18 04:04:56;;;;;;;27.42;8.30;;;6.60;99.90;;;;;;5072642;28;20393;-57
2022/02/18 04:07:22;;;;;;;23.90;7.90;;;6.60;99.90;;;;;;5073580;28;20028;-60
2022/02/18 04:09:47;;;;;;;25.08;8.45;;;6.60;99.90;;;;;;5073822;28;20029;-57
2022/02/18 04:12:13;;;;;;;27.88;8.23;;;6.60;99.90;;;;;;5073662;28;20135;-54
2022/02/18 04:14:38;;;;;;;22.30;8.55;;;6.70;99.90;;;;;;5072814;28;20073;-55
2022/02/18 04:17:04;;;;;;;27.58;7.63;;;6.70;99.90;;;;;;5055751;28;20036;-54
2022/02/18 04:19:30;;;;;;;21.77;8.75;;;6.70;99.90;;;;;;5073459;28;20105;-58
2022/02/18 04:21:55;;;;;;;27.73;10.65;;;6.70;99.90;;;;;;5073377;28;20028;-59
2022/02/18 04:24:21;;;;;;;26.02;8.27;;;6.70;99.90;;;;;;5072650;28;20059;-55
2022/02/18 04:26:47;;;;;;;23.48;9.45;;;6.70;99.90;;;;;;5073567;28;20020;-53
2022/02/18 04:29:12;;;;;;;27.42;9.95;;;6.70;99.90;;;;;;5072846;28;20032;-57
2022/02/18 04:31:38;;;;;;;24.98;9.43;;;6.70;99.90;;;;;;5072979;28;20032;-54
2022/02/18 04:34:04;;;;;;;24.30;9.52;;;6.70;99.90;;;;;;5071915;28;20074;-54
2022/02/18 04:36:29;;;;;;;38.38;11.77;;;6.70;99.90;;;;;;5072804;28;20450;-53
2022/02/18 04:38:55;;;;;;;36.65;8.25;;;6.70;99.90;;;;;;5072885;28;20017;-56
2022/02/18 04:41:24;;;;;;;21.55;8.35;;;6.70;99.90;;;;;;5072875;28;20024;-56
2022/02/18 04:43:50;;;;;;;26.73;9.77;;;6.70;99.90;;;;;;5072251;28;20122;-56
2022/02/18 04:46:16;;;;;;;26.65;9.32;;;6.70;99.90;;;;;;5072617;28;20093;-59
2022/02/18 04:48:41;;;;;;;28.25;8.80;;;6.70;99.90;;;;;;5072850;28;20024;-58
2022/02/18 04:51:07;;;;;;;22.90;8.68;;;6.70;99.90;;;;;;5072815;28;20025;-56
2022/02/18 04:53:33;;;;;;;25.70;8.13;;;6.80;99.90;;;;;;5054811;28;20028;-58
2022/02/18 04:55:58;;;;;;;28.13;9.77;;;6.70;99.90;;;;;;5071816;28;20113;-52
2022/02/18 04:58:24;;;;;;;26.85;8.85;;;6.80;99.90;;;;;;5072692;28;20025;-58
2022/02/18 05:00:49;;;;;;;37.75;10.98;;;6.70;99.90;;;;;;5072411;28;20109;-56
2022/02/18 05:03:15;;;;;;;23.83;7.82;;;6.70;99.90;;;;;;5072612;28;20031;-57
2022/02/18 05:05:41;;;;;;;29.33;9.30;;;6.80;99.90;;;;;;5071774;28;20108;-56
2022/02/18 05:08:07;;;;;;;22.00;8.10;;;6.80;99.90;;;;;;5072526;28;20050;-53
2022/02/18 05:10:33;;;;;;;26.05;8.95;;;6.70;99.90;;;;;;5072383;28;20024;-55
2022/02/18 05:12:58;;;;;;;24.42;8.77;;;6.70;99.90;;;;;;5054384;28;20021;-53
2022/02/18 05:15:24;;;;;;;22.77;8.68;;;6.70;99.90;;;;;;5071895;28;20017;-59
2022/02/18 05:17:49;;;;;;;29.85;9.23;;;6.70;99.90;;;;;;5054501;28;20464;-56
2022/02/18 05:20:16;;;;;;;26.02;8.75;;;6.80;99.90;;;;;;5072206;28;20028;-59
2022/02/18 05:22:42;;;;;;;27.25;8.68;;;6.80;99.90;;;;;;5072316;28;20024;-58
2022/02/18 05:25:08;;;;;;;22.50;8.73;;;6.80;99.90;;;;;;5053316;28;20542;-55
2022/02/18 05:27:34;;;;;;;25.90;8.38;;;6.80;99.90;;;;;;5072400;28;20032;-55
2022/02/18 05:29:59;;;;;;;32.28;8.88;;;6.80;99.90;;;;;;5072313;28;20031;-59
2022/02/18 05:32:25;;;;;;;30.83;8.82;;;6.80;99.90;;;;;;5072241;28;20476;-58
2022/02/18 05:34:50;;;;;;;26.42;8.20;;;6.80;99.90;;;;;;5071271;28;20047;-55
2022/02/18 05:37:16;;;;;;;23.92;7.53;;;6.90;99.90;;;;;;5053894;28;20020;-58
2022/02/18 05:39:42;;;;;;;27.88;8.80;;;6.80;99.90;;;;;;5071988;28;20029;-58
2022/02/18 05:42:07;;;;;;;29.67;10.95;;;6.90;99.90;;;;;;5071929;28;20504;-58
2022/02/18 05:44:34;;;;;;;24.83;9.07;;;6.80;99.90;;;;;;5052998;28;20113;-53
2022/02/18 05:47:00;;;;;;;30.15;8.88;;;6.90;99.90;;;;;;5071837;28;20053;-57
2022/02/18 05:49:27;;;;;;;24.60;8.02;;;6.90;99.90;;;;;;5071896;28;20025;-58
2022/02/18 05:51:53;;;;;;;21.90;7.78;;;7.00;99.90;;;;;;5071987;28;20021;-58
2022/02/18 05:54:19;;;;;;;24.70;9.23;;;7.00;99.90;;;;;;5071122;28;20369;-57
2022/02/18 05:56:44;;;;;;;30.48;8.68;;;7.00;99.90;;;;;;5054275;28;20104;-60
2022/02/18 05:59:10;;;;;;;26.40;8.43;;;7.10;99.90;;;;;;5053918;28;20472;-59
2022/02/18 06:01:38;;;;;;;24.35;9.23;;;7.00;99.90;;;;;;5071969;28;20021;-55
2022/02/18 06:04:04;;;;;;;30.63;8.07;;;7.00;99.90;;;;;;5070185;28;20047;-55
2022/02/18 06:06:30;;;;;;;21.17;8.10;;;6.90;99.90;;;;;;5071860;28;20024;-55
2022/02/18 06:08:55;;;;;;;23.38;8.32;;;6.90;99.90;;;;;;5071703;28;20495;-56
2022/02/18 06:11:21;;;;;;;28.48;8.90;;;6.90;99.90;;;;;;5071702;28;20448;-56
2022/02/18 06:13:47;;;;;;;28.75;11.63;;;6.90;99.90;;;;;;5071250;28;20043;-58
2022/02/18 06:16:14;;;;;;;26.17;8.40;;;6.90;99.90;;;;;;5071018;28;20533;-54
2022/02/18 06:18:39;;;;;;;23.58;8.23;;;6.90;99.90;;;;;;5071478;28;20024;-59
2022/02/18 06:21:05;;;;;;;22.67;8.40;;;6.90;99.90;;;;;;5071301;28;20029;-58
2022/02/18 06:23:30;;;;;;;21.13;7.60;;;6.90;99.90;;;;;;5071256;28;20040;-58
2022/02/18 06:25:56;;;;;;;28.23;9.48;;;6.80;99.90;;;;;;5052368;28;20078;-59
2022/02/18 06:28:22;;;;;;;25.88;7.55;;;6.80;99.90;;;;;;5071526;28;20031;-55
2022/02/18 06:30:47;;;;;;;25.60;8.77;;;6.80;99.90;;;;;;5053224;28;20036;-56
2022/02/18 06:33:13;;;;;;;30.92;9.60;;;6.80;99.90;;;;;;5071244;28;20554;-57
2022/02/18 06:35:39;;;;;;;23.60;7.93;;;6.90;99.90;;;;;;5071344;28;20051;-51
2022/02/18 06:38:07;;;;;;;26.63;8.55;;;6.90;99.90;;;;;;5070773;28;20017;-53
2022/02/18 06:40:33;;;;;;;24.30;7.97;;;6.90;99.90;;;;;;5071137;28;20110;-57
2022/02/18 06:42:58;;;;;;;29.25;8.85;;;6.90;99.90;;;;;;5071162;28;20040;-56
2022/02/18 06:45:24;;;;;;;22.60;8.10;;;7.00;99.90;;;;;;5070361;28;20460;-56
2022/02/18 06:47:50;;;;;;;21.48;8.60;;;6.90;99.90;;;;;;5071472;28;20029;-55
2022/02/18 06:50:17;;;;;;;22.45;8.88;;;6.90;99.90;;;;;;5071321;28;20028;-54
2022/02/18 06:52:44;;;;;;;26.80;8.50;;;7.00;99.90;;;;;;5073653;28;20108;-59
2022/02/18 06:55:11;;;;;;;28.73;9.57;;;7.00;99.90;;;;;;5074391;28;20483;-59
2022/02/18 06:57:41;;;;;;;24.27;10.18;;;7.00;99.90;;;;;;5074596;28;20473;-55
2022/02/18 07:00:09;;;;;;;29.25;8.88;;;7.00;99.90;;;;;;5074466;28;20024;-56
2022/02/18 07:02:35;;;;;;;29.60;8.43;;;7.00;99.90;;;;;;5074513;28;20025;-53
2022/02/18 07:05:00;;;;;;;24.05;8.32;;;7.10;99.90;;;;;;5073421;28;20275;-57
2022/02/18 07:07:26;;;;;;;23.90;8.65;;;7.10;99.90;;;;;;5056926;28;20128;-58
2022/02/18 07:09:52;;;;;;;21.55;7.35;;;7.10;99.90;;;;;;5074559;28;20031;-56
2022/02/18 07:12:19;;;;;;;22.95;8.00;;;7.00;99.90;;;;;;5074172;28;20025;-56
2022/02/18 07:14:44;;;;;;;22.90;6.68;;;7.00;99.90;;;;;;5073753;28;20108;-54
2022/02/18 07:17:10;;;;;;;23.88;7.63;;;7.10;99.90;;;;;;5074614;28;20056;-55
2022/02/18 07:19:36;;;;;;;22.73;8.23;;;7.10;99.90;;;;;;5074189;28;20530;-58
2022/02/18 07:22:02;;;;;;;23.95;8.05;;;7.20;99.90;;;;;;5074323;28;20086;-55
2022/02/18 07:24:28;;;;;;;19.25;7.55;;;7.20;99.90;;;;;;5073388;28;20039;-55
2022/02/18 07:26:54;;;;;;;27.80;7.60;;;7.20;99.90;;;;;;5074214;28;20032;-54
2022/02/18 07:29:19;;;;;;;21.08;6.93;;;7.10;99.90;;;;;;5074378;28;20020;-61
2022/02/18 07:31:45;;;;;;;24.52;11.00;;;7.10;99.90;;;;;;5074156;28;20522;-60
2022/02/18 07:34:10;;;;;;;23.38;7.60;;;7.10;99.90;;;;;;5073089;28;20094;-58
2022/02/18 07:36:36;;;;;;;27.55;7.70;;;7.10;99.90;;;;;;5075648;28;20162;-55
2022/02/18 07:39:02;;;;;;;20.75;7.35;;;7.10;99.90;;;;;;5093447;28;20079;-55
2022/02/18 07:41:27;;;;;;;29.85;7.93;;;7.00;99.90;;;;;;5094078;28;20020;-58
2022/02/18 07:43:53;;;;;;;23.20;7.07;;;7.00;99.90;;;;;;5093578;28;20038;-57
2022/02/18 07:46:18;;;;;;;30.33;9.40;;;7.00;99.90;;;;;;5093747;28;20553;-57
2022/02/18 07:48:44;;;;;;;25.40;7.93;;;7.00;99.90;;;;;;5093948;28;20112;-56
2022/02/18 07:51:10;;;;;;;19.20;8.93;;;7.00;99.90;;;;;;5093404;28;20028;-58
2022/02/18 07:53:36;;;;;;;23.55;8.65;;;7.00;99.90;;;;;;5093332;28;20392;-58
2022/02/18 07:56:02;;;;;;;23.38;7.60;;;7.00;99.90;;;;;;5074416;28;20084;-60
2022/02/18 07:58:28;;;;;;;22.85;7.93;;;7.00;99.90;;;;;;5093594;28;20052;-55
2022/02/18 08:00:53;;;;;;;23.15;7.32;;;7.00;99.90;;;;;;5093525;28;20071;-59
2022/02/18 08:03:19;;;;;;;20.70;7.97;;;7.00;99.90;;;;;;5093052;28;20055;-54
2022/02/18 08:05:45;;;;;;;26.15;8.02;;;7.00;99.90;;;;;;5091454;28;20028;-53
2022/02/18 08:08:10;;;;;;;25.25;7.93;;;7.00;99.90;;;;;;5093408;28;20483;-58
2022/02/18 08:10:36;;;;;;;26.33;8.57;;;7.00;99.90;;;;;;5093184;28;20039;-60
2022/02/18 08:13:02;;;;;;;21.63;8.23;;;7.00;99.90;;;;;;5093158;28;20024;-55
2022/02/18 08:15:28;;;;;;;29.30;9.23;;;6.90;99.90;;;;;;5092327;28;20070;-57
2022/02/18 08:17:54;;;;;;;21.27;9.38;;;6.90;99.90;;;;;;5093095;28;20048;-58
2022/02/18 08:20:19;;;;;;;28.85;7.93;;;6.80;99.90;;;;;;5093169;28;20103;-64
2022/02/18 08:22:45;;;;;;;30.23;7.93;;;6.80;99.90;;;;;;5093106;28;20502;-63
2022/02/18 08:25:11;;;;;;;27.65;9.57;;;6.80;99.90;;;;;;5073817;28;20498;-59
2022/02/18 08:27:37;;;;;;;20.02;8.82;;;6.80;99.90;;;;;;5077463;28;20070;-57
2022/02/18 08:30:06;;;;;;;36.38;11.50;;;6.90;99.90;;;;;;5094008;28;20019;-56
2022/02/18 08:32:33;;;;;;;25.33;8.30;;;6.90;99.90;;;;;;5113171;28;20027;-58
2022/02/18 08:34:59;;;;;;;22.42;9.27;;;6.90;99.90;;;;;;5112092;28;20560;-55
2022/02/18 08:37:25;;;;;;;28.52;10.88;;;6.90;99.90;;;;;;5085644;28;20024;-54
2022/02/18 08:39:50;;;;;;;24.17;9.63;;;6.90;99.90;;;;;;5054487;28;20098;-53
2022/02/18 08:42:16;;;;;;;21.90;9.02;;;6.90;99.90;;;;;;5072528;28;20074;-57
2022/02/18 08:44:42;;;;;;;29.95;11.25;;;6.90;99.90;;;;;;5076370;28;20024;-58
2022/02/18 08:47:07;;;;;;;24.92;9.65;;;6.90;99.90;;;;;;5092595;28;20111;-55
2022/02/18 08:49:34;;;;;;;21.25;11.40;;;7.00;99.90;;;;;;5074294;28;20458;-56
2022/02/18 08:52:00;;;;;;;29.08;15.05;;;7.00;99.90;;;;;;5089202;28;20020;-56
2022/02/18 08:54:26;;;;;;;24.58;16.60;;;7.00;99.90;;;;;;5091123;28;20111;-58
2022/02/18 08:56:51;;;;;;;23.80;16.90;;;7.10;99.90;;;;;;5092558;28;20388;-55
2022/02/18 08:59:17;;;;;;;28.92;19.70;;;7.10;99.90;;;;;;5092340;28;20030;-56
2022/02/18 09:01:43;;;;;;;33.25;22.02;;;7.10;99.90;;;;;;5074043;28;20111;-57
2022/02/18 09:04:09;;;;;;;26.58;23.80;;;7.20;99.90;;;;;;5091858;28;20505;-58
2022/02/18 09:06:35;;;;;;;27.45;24.55;;;7.20;99.90;;;;;;5074415;28;20024;-53
2022/02/18 09:09:00;;;;;;;25.65;23.15;;;7.20;99.90;;;;;;5092288;28;20028;-58
2022/02/18 09:11:26;;;;;;;45.05;26.65;;;7.30;99.90;;;;;;5073934;28;20016;-58
2022/02/18 09:13:52;;;;;;;30.33;27.20;;;7.30;99.90;;;;;;5073337;28;20391;-56
2022/02/18 09:16:19;;;;;;;28.60;25.58;;;7.40;99.90;;;;;;5091435;28;20032;-58
2022/02/18 09:18:45;;;;;;;32.55;24.20;;;7.40;99.90;;;;;;5092054;28;20051;-57
2022/02/18 09:21:11;;;;;;;29.80;24.90;;;7.50;99.90;;;;;;5091794;28;20090;-59
2022/02/18 09:23:37;;;;;;;30.48;24.17;;;7.60;99.90;;;;;;5092115;28;20027;-60
2022/02/18 09:26:03;;;;;;;27.88;24.73;;;7.60;99.90;;;;;;5072277;28;20028;-54
2022/02/18 09:28:29;;;;;;;29.15;23.55;;;7.70;99.90;;;;;;5083139;28;20381;-56
2022/02/18 09:30:55;;;;;;;28.77;24.40;;;7.70;99.90;;;;;;5081178;28;20027;-50
2022/02/18 09:33:22;;;;;;;29.58;25.48;;;7.70;99.90;;;;;;5082349;28;20089;-53
2022/02/18 09:35:48;;;;;;;27.55;24.42;;;7.80;99.90;;;;;;5079458;28;20027;-53
2022/02/18 09:38:14;;;;;;;29.58;24.25;;;7.80;99.90;;;;;;5080641;28;20028;-54
2022/02/18 09:40:41;;;;;;;31.33;27.25;;;7.90;99.90;;;;;;5081889;28;20171;-57
2022/02/18 09:43:07;;;;;;;31.50;26.80;;;7.90;99.90;;;;;;5075523;28;20025;-49
2022/02/18 09:45:34;;;;;;;30.02;24.50;;;8.00;99.90;;;;;;5090701;28;20024;-51
2022/02/18 09:48:00;;;;;;;27.35;23.60;;;8.00;99.90;;;;;;5091782;28;20084;-50
2022/02/18 09:50:26;;;;;;;29.02;24.10;;;8.00;99.90;;;;;;5091349;28;20028;-51
2022/02/18 09:52:52;;;;;;;28.35;24.15;;;8.10;99.90;;;;;;5091452;28;20032;-52
2022/02/18 09:55:18;;;;;;;27.48;24.17;;;8.10;99.90;;;;;;5090633;28;20029;-53
2022/02/18 09:57:48;;;;;;;25.40;22.73;;;8.20;99.90;;;;;;5091570;28;20042;-53
2022/02/18 10:00:14;;;;;;;23.70;21.17;;;8.30;99.90;;;;;;5073505;28;20429;-57
2022/02/18 10:02:40;;;;;;;29.77;26.60;;;8.40;99.90;;;;;;5091250;28;20072;-56
2022/02/18 10:05:07;;;;;;;30.23;27.70;;;8.40;99.90;;;;;;5090516;28;20136;-58
2022/02/18 10:07:34;;;;;;;34.08;30.73;;;8.40;99.90;;;;;;5091414;28;20024;-57
2022/02/18 10:10:00;;;;;;;32.60;29.77;;;;;;;;;;5091115;28;20472;-55
2022/02/18 10:12:38;;;;;;;31.52;28.67;;;8.50;99.90;;;;;;5091496;28;20070;-54
2022/02/18 10:15:14;;;;;;;31.40;28.40;;;8.60;99.90;;;;;;5090694;28;20020;-53
2022/02/18 10:17:42;;;;;;;31.30;28.20;;;8.60;99.90;;;;;;5073220;28;20020;-55
2022/02/18 10:20:16;;;;;;;34.13;30.67;;;8.60;99.90;;;;;;5073287;28;20078;-56
2022/02/18 10:22:53;;;;;;;32.00;28.88;;;8.50;99.90;;;;;;5091466;28;20274;-56
2022/02/18 10:25:27;;;;;;;33.30;30.07;;;8.60;99.90;;;;;;5090341;28;20050;-54
2022/02/18 10:27:53;;;;;;;31.67;28.52;;;8.60;99.90;;;;;;5092888;28;20028;-58
2022/02/18 10:30:25;;;;;;;31.08;27.75;;;8.70;99.90;;;;;;5095461;28;20399;-57
2022/02/18 10:32:55;;;;;;;27.52;24.75;;;8.70;99.90;;;;;;5095642;28;20024;-57
2022/02/18 10:35:32;;;;;;;29.15;25.13;;;8.70;99.90;;;;;;5094709;28;20028;-55
2022/02/18 10:37:58;;;;;;;29.20;23.73;;;8.80;99.90;;;;;;5095105;28;20020;-59
2022/02/18 10:40:24;;;;;;;26.20;23.48;;;8.80;99.90;;;;;;5095145;28;20020;-53
2022/02/18 10:42:55;;;;;;;25.10;22.40;;;8.90;99.90;;;;;;5094823;28;20028;-57
2022/02/18 10:45:24;;;;;;;23.77;21.17;;;8.90;99.90;;;;;;5094133;28;20056;-55
2022/02/18 10:48:05;;;;;;;;;;;9.00;99.90;;;;;;5094994;28;20480;-55
2022/02/18 10:50:31;;;;;;;25.10;21.63;;;9.00;99.90;;;;;;5094947;28;19908;-57
2022/02/18 10:53:11;;;;;;;24.10;21.50;;;;;;;;;;5094810;28;20446;-53
2022/02/18 10:55:53;;;;;;;23.92;20.83;;;;;;;;;;5094461;28;20024;-55
2022/02/18 10:58:27;;;;;;;24.08;19.75;;;;;;;;;;5095315;28;20484;-57
2022/02/18 11:01:19;;;;;;;21.23;19.02;;;9.10;99.90;;;;;;5095553;28;20016;-55
2022/02/18 11:03:46;;;;;;;26.55;19.83;;;;;;;;;;5076508;28;20031;-54
2022/02/18 11:06:32;;;;;;;19.90;16.90;;;;;;;;;;5094212;28;20028;-55
2022/02/18 11:08:58;;;;;;;20.05;17.70;;;;;;;;;;5094629;28;20020;-57
2022/02/18 11:11:27;;;;;;;21.63;18.30;;;;;;;;;;5094603;28;20024;-55
2022/02/18 11:13:53;;;;;;;20.25;17.58;;;;;;;;;;5093779;28;20028;-55
2022/02/18 11:16:20;;;;;;;20.60;18.42;;;;;;;;;;5076165;28;20026;-53
2022/02/18 11:18:47;;;;;;;20.77;18.42;;;;;;;;;;5094267;28;20045;-58
2022/02/18 11:21:14;;;;;;;22.52;18.08;;;;;;;;;;5076340;28;20085;-56
2022/02/18 11:23:42;;;;;;;20.88;18.05;;;;;;;;;;5094419;28;20024;-59
2022/02/18 11:26:12;;;;;;;19.50;17.45;;;9.40;99.90;;;;;;5093426;28;20533;-59
2022/02/18 11:28:38;;;;;;;18.98;16.52;;;;;;;;;;5093963;28;20471;-57
2022/02/18 11:31:06;;;;;;;19.02;16.80;;;;;;;;;;5090982;28;20081;-55
2022/02/18 11:33:32;;;;;;;18.48;15.85;;;;;;;;;;5073860;28;20387;-55
2022/02/18 11:36:25;;;;;;;19.45;15.20;;;9.80;99.90;;;;;;5055187;28;20111;-57
2022/02/18 11:39:08;;;;;;;16.67;14.20;;;10.00;99.90;;;;;;5086566;28;20545;-58
2022/02/18 11:42:11;;;;;;;18.73;14.00;;;10.10;99.90;;;;;;5094076;28;20035;-57
2022/02/18 11:44:37;;;;;;;16.75;10.23;;;10.10;99.90;;;;;;4734542;28;10000825;-60
2022/02/18 11:47:21;;;;;;;18.08;9.20;;;10.20;99.90;;;;;;5090191;28;20090;-55
2022/02/18 11:49:49;;;;;;;15.82;9.52;;;10.30;99.90;;;;;;5084180;28;20037;-56
2022/02/18 11:52:17;;;;;;;16.27;9.25;;;10.30;99.90;;;;;;5079941;28;20032;-57
2022/02/18 11:54:43;;;;;;;15.25;8.20;;;10.40;99.90;;;;;;5078841;28;20503;-58
2022/02/18 11:57:17;;;;;;;15.45;8.05;;;10.50;99.90;;;;;;5078508;28;20036;-56
2022/02/18 12:00:07;;;;;;;14.18;7.60;;;10.60;99.90;;;;;;5080699;28;20424;-57
2022/02/18 12:02:42;;;;;;;19.30;6.57;;;10.70;99.90;;;;;;5078972;28;20027;-55
2022/02/18 12:05:15;;;;;;;13.52;6.57;;;10.70;99.90;;;;;;5077842;28;20037;-59
2022/02/18 12:07:54;;;;;;;13.35;6.43;;;10.70;99.90;;;;;;5079535;28;20020;-53
2022/02/18 12:10:25;;;;;;;14.30;6.32;;;10.80;99.90;;;;;;5079692;28;20082;-57
2022/02/18 12:13:05;;;;;;;13.68;5.78;;;10.80;99.90;;;;;;5082034;28;20052;-57
2022/02/18 12:15:35;;;;;;;17.75;5.90;;;10.80;99.90;;;;;;5070751;28;20054;-55
2022/02/18 12:18:05;;;;;;;11.73;5.00;;;;;;;;;;5076905;28;20056;-59
2022/02/18 12:20:36;;;;;;;10.73;4.50;;;;;;;;;;5080168;28;20460;-59
2022/02/18 12:23:21;;;;;;;15.02;4.45;;;;;;;;;;5075117;28;20024;-55
2022/02/18 12:25:47;;;;;;;9.93;4.45;;;10.90;99.90;;;;;;5092705;28;20024;-52
2022/02/18 12:28:18;;;;;;;12.13;4.40;;;11.00;99.90;;;;;;5093194;28;20028;-55
2022/02/18 12:30:57;;;;;;;9.77;4.30;;;11.00;99.90;;;;;;5093325;28;20034;-57
2022/02/18 12:33:23;;;;;;;8.95;4.15;;;11.10;99.90;;;;;;5093347;28;20473;-56
2022/02/18 12:35:49;;;;;;;10.45;4.10;;;11.20;99.90;;;;;;5093819;28;20028;-55
2022/02/18 12:38:15;;;;;;;8.98;3.92;;;11.30;99.90;;;;;;5085617;28;20082;-57
2022/02/18 12:40:42;;;;;;;12.82;4.20;;;11.40;99.90;;;;;;5055265;28;20488;-56
2022/02/18 12:43:17;;;;;;;11.03;4.20;;;11.40;99.90;;;;;;4720733;28;9999599;-56
2022/02/18 12:45:53;;;;;;;9.98;4.20;;;11.40;99.90;;;;;;5069834;28;20115;-57
2022/02/18 12:48:40;;;;;;;11.05;3.97;;;11.40;99.90;;;;;;5052803;28;20036;-59
2022/02/18 12:51:12;;;;;;;10.32;4.35;;;11.40;99.90;;;;;;5072735;28;20016;-57